Campo Fontenelle Airport
SBYS : rendu visible

Aérodrome :











RETROUVEZ-NOUS SUR...

 
LOGIN :

S'inscrire | Disclaimer

   EN    FR    IT 

 









Légende :    VFR   VFR Marginal   IFR   IFR Intensif   IFR Très Intensif
Visi : 
Plafond : 
>= 8 km
>= 3000ft
5 à 8 km
1000 à 3000 ft
1500m à 5 km
500 à 1000 ft
800 à 1500m
200 à 500 ft
< 800m
< 200 ft
Symboles :   Orages  Brouillard  Fortes neiges  Fortes précipitations  Vent > 20 kt






- Altitude de l'aérodrome : 1968 ft
- Code IATA : QPS


SBYS - Campo Fontenelle

METARs EXPIRÉS :
  • 041700Z 28006KT 230V330 CAVOK 28/13 Q1013
  • 041600Z 32006KT 260V020 CAVOK 28/15 Q1014

TAF TAF SBYS
Valide du 04 à 18h jusqu'au 05 à 06h UTC


041500Z 0418/0506 21006KT 9999 FEW040 TX29/0418Z TN15/0505Z
BECMG 0423/0501 13006KT CAVOK RMK PEL



MET'MAP, la Météo Aéronautique d'un coup d'oeil ! - Copyright ORBIFLY Décembre 2007 - Disclaimer

ORBIFLY MET'MAP TEAM :

Programmation & Développement : Alexandra Zaïnal
Sur une idée originale de : Baudouin d'Aumeries
Assistance à la programmation : Marc-Olivier Méhu
Soutien technique & logistique : Manuel Goepfert

Contact : metmap@orbifly.com




SOURCES & CREDITS :

   NOAA       Earth
Advisory